Time;durP1;ratioP1;P1;durP2;ratioP2;P2;SDS_P1;SDS_P2;PMS_P1;PMS_P2;Temp;Humidity;BMP_temperature;BMP_pressure;BME280_temperature;BME280_humidity;BME280_pressure;Samples;Min_cycle;Max_cycle;Signal;HPM_P1;HPM_P2
2021/08/05 00:00:20;;;;;;;30.95;19.85;;;;;;;14.98;92.74;101052.16;5071629;28;20029;-66
2021/08/05 00:02:45;;;;;;;29.60;20.40;;;;;;;14.89;93.63;101044.28;5072800;28;20028;-64
2021/08/05 00:05:11;;;;;;;29.75;19.50;;;;;;;14.92;93.82;101044.22;5072706;28;20036;-63
2021/08/05 00:07:36;;;;;;;29.83;20.25;;;;;;;14.92;94.04;101044.22;5073112;28;20028;-63
2021/08/05 00:10:02;;;;;;;33.45;22.08;;;;;;;14.87;94.45;101040.72;5072476;28;20016;-63
2021/08/05 00:12:28;;;;;;;31.90;21.73;;;;;;;14.84;95.13;101041.66;5072217;28;20554;-64
2021/08/05 00:14:53;;;;;;;32.38;22.67;;;;;;;14.78;95.72;101041.69;5073008;28;20060;-64
2021/08/05 00:17:19;;;;;;;33.65;22.88;;;;;;;14.76;96.30;101038.19;5072677;28;20029;-64
2021/08/05 00:19:44;;;;;;;33.55;23.10;;;;;;;14.78;97.00;101036.38;5072452;28;20070;-63
2021/08/05 00:22:09;;;;;;;32.75;22.63;;;;;;;14.80;96.18;101032.81;5072763;28;20028;-63
2021/08/05 00:24:35;;;;;;;33.85;23.20;;;;;;;14.85;96.20;101029.22;5072499;28;20031;-63
2021/08/05 00:27:00;;;;;;;36.50;23.58;;;;;;;14.90;95.83;101035.41;5072461;28;20031;-63
2021/08/05 00:29:26;;;;;;;33.85;22.55;;;;;;;14.92;95.68;101030.94;5072875;28;20414;-63
2021/08/05 00:31:51;;;;;;;35.17;22.77;;;;;;;14.92;95.87;101018.50;5071087;28;20074;-64
2021/08/05 00:34:16;;;;;;;33.53;22.35;;;;;;;14.89;96.32;101015.88;5072754;28;20104;-63
2021/08/05 00:36:41;;;;;;;34.10;23.58;;;;;;;14.88;96.79;101027.44;5072437;28;20116;-63
2021/08/05 00:39:07;;;;;;;35.38;23.52;;;;;;;14.87;97.51;101012.34;5072212;28;20107;-64
2021/08/05 00:41:32;;;;;;;35.80;24.90;;;;;;;14.85;97.14;101019.44;5072606;28;20025;-64
2021/08/05 00:44:00;;;;;;;34.55;23.85;;;;;;;14.86;96.80;101013.25;5072250;28;20079;-63
2021/08/05 00:46:25;;;;;;;34.78;24.13;;;;;;;14.88;96.77;101010.56;5073840;28;20025;-63
2021/08/05 00:48:50;;;;;;;35.25;23.90;;;;;;;14.95;96.57;101013.13;5076555;28;20104;-63
2021/08/05 00:51:16;;;;;;;36.35;24.48;;;;;;;14.93;96.01;101014.94;5076252;28;20063;-67
2021/08/05 00:53:44;;;;;;;36.33;25.30;;;;;;;14.92;96.33;101009.63;5076319;28;20095;-69
2021/08/05 00:56:09;;;;;;;36.50;25.27;;;;;;;14.89;96.47;101010.53;5076394;28;20028;-67
2021/08/05 00:58:35;;;;;;;36.63;24.98;;;;;;;14.90;97.08;101006.13;5076123;28;20379;-67
2021/08/05 01:01:10;;;;;;;37.08;25.80;;;;;;;14.90;97.56;100998.13;5076038;28;20067;-66
2021/08/05 01:03:39;;;;;;;36.17;25.40;;;;;;;14.95;96.42;101004.28;5076467;28;20370;-66
2021/08/05 01:06:10;;;;;;;38.67;26.83;;;;;;;14.96;95.82;100998.06;5076260;28;20112;-67
2021/08/05 01:08:40;;;;;;;41.67;29.33;;;;;;;14.89;96.14;100997.22;5076011;28;20032;-67
2021/08/05 01:11:29;;;;;;;41.28;27.75;;;;;;;14.85;95.57;100989.31;5075739;28;20078;-66
2021/08/05 01:13:59;;;;;;;41.45;29.25;;;;;;;14.76;97.77;100990.28;5073349;28;20024;-65
2021/08/05 01:16:32;;;;;;;39.53;28.92;;;;;;;14.75;98.41;100992.06;5075985;28;20103;-65
2021/08/05 01:19:31;;;;;;;37.97;27.55;;;;;;;14.80;96.58;100998.22;5075909;28;20032;-65
2021/08/05 01:22:08;;;;;;;39.63;28.33;;;;;;;14.84;98.10;100987.53;4994358;28;20072;-64
2021/08/05 01:24:36;;;;;;;39.75;29.10;;;;;;;14.71;98.83;100989.44;4994468;28;20041;-65
2021/08/05 01:27:03;;;;;;;41.42;28.25;;;;;;;14.64;100.00;100992.16;4994100;28;20042;-66
2021/08/05 01:29:33;;;;;;;43.22;30.13;;;;;;;14.53;100.00;100987.81;4994249;28;20505;-64
2021/08/05 01:32:01;;;;;;;39.65;28.50;;;;;;;14.62;100.00;100996.63;4994274;28;20039;-65
2021/08/05 01:34:27;;;;;;;41.05;29.63;;;;;;;14.61;100.00;101001.94;4994049;28;20576;-65
2021/08/05 01:36:54;;;;;;;41.00;29.05;;;;;;;14.60;100.00;100998.38;4993971;28;20037;-64
2021/08/05 01:39:19;;;;;;;41.90;29.00;;;;;;;14.62;100.00;101004.63;4994097;28;20050;-63
2021/08/05 01:41:47;;;;;;;39.17;28.05;;;;;;;14.67;100.00;100990.41;4993977;28;20447;-63
2021/08/05 01:44:13;;;;;;;41.85;28.52;;;;;;;14.69;100.00;100988.59;4993739;28;20061;-63
2021/08/05 01:46:39;;;;;;;40.90;29.42;;;;;;;14.69;100.00;100984.13;4994062;28;20498;-63
2021/08/05 01:49:06;;;;;;;40.38;29.10;;;;;;;14.70;100.00;100979.72;4993761;28;20030;-63
2021/08/05 01:51:32;;;;;;;40.53;29.02;;;;;;;14.70;100.00;100982.38;4993762;28;20034;-63
2021/08/05 01:53:58;;;;;;;39.85;28.63;;;;;;;14.69;100.00;100983.25;4993913;28;20092;-63
2021/08/05 01:56:25;;;;;;;40.05;28.08;;;;;;;14.68;100.00;100977.06;4993606;28;20070;-63
2021/08/05 01:58:51;;;;;;;40.78;29.42;;;;;;;14.71;100.00;100981.47;5054243;28;20068;-63
2021/08/05 02:01:18;;;;;;;38.55;28.27;;;;;;;14.73;100.00;100969.91;5075231;28;20020;-65
2021/08/05 02:03:58;;;;;;;39.67;28.70;;;;;;;14.77;100.00;100974.31;5074966;28;20036;-66
2021/08/05 02:06:25;;;;;;;43.42;30.98;;;;;;;14.83;100.00;100970.69;5071952;28;20029;-64
2021/08/05 02:08:54;;;;;;;41.13;30.88;;;;;;;14.83;100.00;100968.03;5075047;28;20028;-63
2021/08/05 02:11:32;;;;;;;41.10;29.92;;;;;;;14.80;100.00;100970.72;5075022;28;20041;-66
2021/08/05 02:14:01;;;;;;;42.25;30.45;;;;;;;14.68;100.00;100973.50;5072711;28;20115;-66
2021/08/05 02:16:29;;;;;;;41.88;30.30;;;;;;;14.70;100.00;100961.09;5074587;28;20391;-64
2021/08/05 02:18:55;;;;;;;40.90;29.98;;;;;;;14.74;100.00;100962.81;5074552;28;20025;-65
2021/08/05 02:21:23;;;;;;;41.85;31.10;;;;;;;14.78;100.00;100965.44;5074952;28;20021;-66
2021/08/05 02:23:50;;;;;;;42.17;31.83;;;;;;;14.82;100.00;100963.59;5074537;28;20074;-66
2021/08/05 02:26:16;;;;;;;44.10;31.85;;;;;;;14.79;100.00;100955.66;5070533;28;20067;-66
2021/08/05 02:28:41;;;;;;;45.85;32.85;;;;;;;14.71;100.00;100957.50;5074662;28;20052;-67
2021/08/05 02:31:08;;;;;;;42.92;32.05;;;;;;;14.66;100.00;100952.25;5074398;28;20017;-66
2021/08/05 02:33:34;;;;;;;44.72;33.67;;;;;;;14.65;100.00;100955.81;5074345;28;20036;-66
2021/08/05 02:36:01;;;;;;;44.20;33.50;;;;;;;14.65;100.00;100950.50;5074697;28;20028;-67
2021/08/05 02:38:27;;;;;;;44.95;34.47;;;;;;;14.66;100.00;100946.06;5074322;28;20039;-67
2021/08/05 02:40:53;;;;;;;46.05;34.25;;;;;;;14.68;100.00;100954.88;5074277;28;20028;-65
2021/08/05 02:43:19;;;;;;;46.15;33.83;;;;;;;14.66;100.00;100951.38;5074417;28;20089;-67
2021/08/05 02:45:47;;;;;;;42.20;32.22;;;;;;;14.66;100.00;100943.41;5074124;28;20033;-66
2021/08/05 02:48:13;;;;;;;42.58;31.48;;;;;;;14.71;100.00;100945.09;5073940;28;20482;-64
2021/08/05 02:50:40;;;;;;;43.55;31.58;;;;;;;14.69;100.00;100943.34;5074532;28;20028;-67
2021/08/05 02:53:06;;;;;;;44.20;32.60;;;;;;;14.64;100.00;100944.28;5074053;28;20033;-67
2021/08/05 02:55:32;;;;;;;44.28;32.83;;;;;;;14.61;100.00;100946.06;5074188;28;20073;-66
2021/08/05 02:57:58;;;;;;;43.08;32.70;;;;;;;14.54;100.00;100941.72;5074000;28;20028;-67
2021/08/05 03:00:24;;;;;;;45.28;32.65;;;;;;;14.46;100.00;100941.81;5073837;28;20073;-67
2021/08/05 03:02:49;;;;;;;44.45;32.55;;;;;;;14.46;100.00;100934.69;5073866;28;20099;-67
2021/08/05 03:05:17;;;;;;;45.40;33.28;;;;;;;14.42;100.00;100929.44;5073770;28;20490;-67
2021/08/05 03:07:43;;;;;;;43.47;31.85;;;;;;;14.37;100.00;100933.91;5073673;28;20024;-70
2021/08/05 03:10:10;;;;;;;43.28;31.35;;;;;;;14.33;100.00;100937.47;5073255;28;20387;-66
2021/08/05 03:12:35;;;;;;;45.35;32.33;;;;;;;14.28;100.00;100933.13;5073544;28;20045;-66
2021/08/05 03:15:01;;;;;;;43.88;31.92;;;;;;;14.28;100.00;100933.13;5073537;28;20533;-66
2021/08/05 03:17:27;;;;;;;43.00;31.08;;;;;;;14.27;100.00;100933.09;5073592;28;20077;-67
2021/08/05 03:19:52;;;;;;;44.85;30.77;;;;;;;14.22;100.00;100930.50;5073658;28;20028;-66
2021/08/05 03:22:17;;;;;;;42.00;31.02;;;;;;;14.15;100.00;100931.44;5073694;28;20043;-67
2021/08/05 03:24:43;;;;;;;43.15;32.42;;;;;;;14.15;100.00;100933.22;5073392;28;20021;-66
2021/08/05 03:27:09;;;;;;;44.30;31.52;;;;;;;14.13;100.00;100926.13;5073655;28;20031;-67
2021/08/05 03:29:35;;;;;;;46.53;33.35;;;;;;;14.11;100.00;100933.25;5073267;28;20419;-66
2021/08/05 03:32:00;;;;;;;46.47;34.10;;;;;;;14.12;100.00;100934.13;5073613;28;20034;-67
2021/08/05 03:34:26;;;;;;;45.42;33.70;;;;;;;14.15;100.00;100930.56;5073223;28;20379;-67
2021/08/05 03:36:51;;;;;;;47.03;34.65;;;;;;;14.19;100.00;100930.53;5073100;28;20031;-66
2021/08/05 03:39:17;;;;;;;48.40;36.00;;;;;;;14.18;100.00;100927.88;5073325;28;20028;-67
2021/08/05 03:41:42;;;;;;;47.97;35.45;;;;;;;14.21;100.00;100927.84;5073314;28;20442;-67
2021/08/05 03:44:07;;;;;;;46.63;33.97;;;;;;;14.17;100.00;100931.41;5073015;28;20028;-67
2021/08/05 03:46:33;;;;;;;48.00;35.20;;;;;;;14.11;100.00;100930.59;5073172;28;20031;-66
2021/08/05 03:48:58;;;;;;;48.22;34.83;;;;;;;14.06;100.00;100923.56;5072834;28;20547;-67
2021/08/05 03:51:23;;;;;;;48.63;35.08;;;;;;;14.08;100.00;100930.63;5073373;28;20029;-67
2021/08/05 03:53:49;;;;;;;46.45;34.03;;;;;;;14.06;100.00;100928.88;5072970;28;20475;-67
2021/08/05 03:56:14;;;;;;;46.35;33.80;;;;;;;13.99;100.00;100924.50;5072800;28;20028;-66
2021/08/05 03:58:39;;;;;;;46.67;34.00;;;;;;;13.94;100.00;100914.78;5072835;28;20035;-67
2021/08/05 04:01:05;;;;;;;46.33;33.95;;;;;;;13.95;100.00;100927.19;5072670;28;20074;-66
2021/08/05 04:03:30;;;;;;;46.17;33.53;;;;;;;14.00;100.00;100920.97;5072893;28;20115;-67
2021/08/05 04:05:56;;;;;;;47.53;34.33;;;;;;;14.02;100.00;100921.81;5072965;28;20020;-66
2021/08/05 04:08:21;;;;;;;47.00;34.28;;;;;;;14.01;100.00;100922.69;5072800;28;20050;-66
2021/08/05 04:10:46;;;;;;;47.15;35.17;;;;;;;13.98;100.00;100918.31;5072591;28;20108;-67
2021/08/05 04:13:13;;;;;;;49.10;36.38;;;;;;;13.99;100.00;100922.72;5072640;28;20049;-66
2021/08/05 04:15:40;;;;;;;48.15;35.35;;;;;;;14.01;100.00;100914.72;5072620;28;20024;-65
2021/08/05 04:18:06;;;;;;;50.15;36.78;;;;;;;14.06;100.00;100926.22;5072510;28;20031;-66
2021/08/05 04:20:31;;;;;;;48.40;36.17;;;;;;;14.09;100.00;100918.22;5072663;28;20024;-65
2021/08/05 04:22:57;;;;;;;46.95;34.83;;;;;;;14.06;100.00;100912.94;5072544;28;20052;-66
2021/08/05 04:25:22;;;;;;;48.60;36.20;;;;;;;14.06;100.00;100919.13;5072504;28;20025;-65
2021/08/05 04:27:48;;;;;;;47.95;35.40;;;;;;;14.02;100.00;100905.88;5072935;28;20024;-66
2021/08/05 04:30:14;;;;;;;47.45;35.47;;;;;;;14.00;100.00;100907.69;5072463;28;20448;-67
2021/08/05 04:32:40;;;;;;;47.72;35.22;;;;;;;14.02;100.00;100908.53;5072674;28;20074;-64
2021/08/05 04:35:07;;;;;;;50.10;37.33;;;;;;;14.01;100.00;100918.28;5072500;28;20031;-63
2021/08/05 04:37:32;;;;;;;50.15;37.25;;;;;;;14.05;100.00;100912.06;5072612;28;20031;-63
2021/08/05 04:39:57;;;;;;;49.45;37.25;;;;;;;14.08;100.00;100912.03;5072437;28;20024;-63
2021/08/05 04:42:22;;;;;;;50.10;37.95;;;;;;;14.14;100.00;100908.44;5072254;28;20107;-63
2021/08/05 04:44:48;;;;;;;49.58;36.63;;;;;;;14.16;100.00;100897.78;5072324;28;20116;-63
2021/08/05 04:47:13;;;;;;;49.88;36.33;;;;;;;14.16;100.00;100914.59;5072514;28;20107;-62
2021/08/05 04:49:38;;;;;;;50.13;37.60;;;;;;;14.20;100.00;100911.03;5072343;28;20024;-63
2021/08/05 04:52:06;;;;;;;50.20;37.42;;;;;;;14.24;100.00;100904.78;5072093;28;20024;-63
2021/08/05 04:54:32;;;;;;;47.50;35.60;;;;;;;14.29;100.00;100910.06;5072579;28;20032;-63
2021/08/05 04:56:57;;;;;;;48.70;36.25;;;;;;;14.30;100.00;100911.81;5072273;28;20025;-63
2021/08/05 04:59:23;;;;;;;49.72;37.20;;;;;;;14.29;100.00;100916.25;5072114;28;20111;-63
2021/08/05 05:01:48;;;;;;;48.30;36.95;;;;;;;14.32;100.00;100909.16;5072349;28;20032;-62
2021/08/05 05:04:14;;;;;;;49.88;36.42;;;;;;;14.34;100.00;100907.34;5072128;28;20028;-63
2021/08/05 05:06:39;;;;;;;51.85;38.53;;;;;;;14.32;100.00;100911.81;5071976;28;20024;-62
2021/08/05 05:09:05;;;;;;;50.78;38.60;;;;;;;14.34;100.00;100908.22;5072414;28;20032;-62
2021/08/05 05:11:30;;;;;;;51.05;38.70;;;;;;;14.40;100.00;100901.94;5071977;28;20430;-62
2021/08/05 05:13:56;;;;;;;52.85;39.28;;;;;;;14.44;100.00;100904.56;5072060;28;20375;-62
2021/08/05 05:16:22;;;;;;;53.78;40.90;;;;;;;14.48;100.00;100908.94;5072325;28;20379;-63
2021/08/05 05:18:47;;;;;;;53.65;41.47;;;;;;;14.56;100.00;100906.22;5071923;28;20071;-65
2021/08/05 05:21:12;;;;;;;53.17;41.38;;;;;;;14.68;100.00;100902.59;5072336;28;20584;-65
2021/08/05 05:23:38;;;;;;;56.08;43.90;;;;;;;14.75;100.00;100898.03;5072140;28;20032;-65
2021/08/05 05:26:04;;;;;;;55.97;43.90;;;;;;;14.82;100.00;100900.63;5071939;28;20384;-65
2021/08/05 05:28:30;;;;;;;54.35;41.70;;;;;;;14.83;100.00;100906.81;5072243;28;20027;-66
2021/08/05 05:30:57;;;;;;;55.22;43.05;;;;;;;14.76;100.00;100902.47;5071968;28;20005;-64
2021/08/05 05:33:23;;;;;;;57.72;43.58;;;;;;;14.75;100.00;100903.38;5077684;28;20024;-65
2021/08/05 05:35:48;;;;;;;56.65;44.10;;;;;;;14.72;100.00;100898.09;5082623;28;20024;-64
2021/08/05 05:38:14;;;;;;;56.42;44.42;;;;;;;14.71;100.00;100897.22;5082785;28;20487;-65
2021/08/05 05:40:40;;;;;;;53.95;43.33;;;;;;;14.74;100.00;100897.19;5080115;28;20382;-64
2021/08/05 05:43:06;;;;;;;58.15;43.60;;;;;;;14.81;100.00;100908.63;5078588;28;20429;-65
2021/08/05 05:45:32;;;;;;;59.17;45.90;;;;;;;14.82;100.00;100894.41;5079922;28;20112;-64
2021/08/05 05:48:00;;;;;;;58.35;45.75;;;;;;;14.89;100.00;100895.22;5080666;28;20024;-64
2021/08/05 05:50:26;;;;;;;57.67;45.28;;;;;;;14.98;100.00;100896.00;5082773;28;20041;-65
2021/08/05 05:52:51;;;;;;;60.83;47.53;;;;;;;15.16;100.00;100892.19;5081128;28;20390;-63
2021/08/05 05:55:17;;;;;;;59.53;47.08;;;;;;;15.26;100.00;100894.72;5079844;28;20032;-63
2021/08/05 05:57:42;;;;;;;58.15;46.60;;;;;;;15.36;100.00;100893.69;5081564;28;20031;-64
2021/08/05 06:00:08;;;;;;;60.63;46.67;;;;;;;15.50;100.00;100898.81;5081800;28;20459;-64
2021/08/05 06:02:34;;;;;;;58.63;45.83;;;;;;;15.65;100.00;100895.94;5077614;28;20021;-65
2021/08/05 06:05:00;;;;;;;57.25;45.15;;;;;;;15.82;100.00;100894.81;5080751;28;20539;-66
2021/08/05 06:07:25;;;;;;;56.17;44.38;;;;;;;16.06;100.00;100889.94;5076559;28;20475;-65
2021/08/05 06:09:51;;;;;;;55.38;45.08;;;;;;;16.24;99.97;100883.38;5080004;28;20468;-65
2021/08/05 06:12:17;;;;;;;57.17;45.53;;;;;;;16.31;97.43;100888.59;5073647;28;20127;-64
2021/08/05 06:14:44;;;;;;;59.25;47.15;;;;;;;16.36;96.55;100897.38;5078757;28;20120;-65
2021/08/05 06:17:09;;;;;;;60.92;48.45;;;;;;;16.45;96.04;100900.78;5078967;28;20056;-66
2021/08/05 06:19:34;;;;;;;64.65;52.08;;;;;;;16.48;95.77;100895.41;5077356;28;20110;-64
2021/08/05 06:21:59;;;;;;;68.70;53.55;;;;;;;16.49;95.74;100895.38;5078985;28;20052;-63
2021/08/05 06:24:26;;;;;;;63.83;53.05;;;;;;;16.51;95.07;100904.25;5077999;28;20052;-64
2021/08/05 06:26:51;;;;;;;64.88;52.08;;;;;;;16.59;92.97;100903.22;5078820;28;20083;-64
2021/08/05 06:29:17;;;;;;;63.75;52.42;;;;;;;16.64;94.03;100904.84;5079457;28;20063;-65
2021/08/05 06:31:43;;;;;;;67.80;54.70;;;;;;;16.68;92.89;100897.69;5075337;28;20059;-65
2021/08/05 06:34:08;;;;;;;63.88;51.92;;;;;;;16.77;94.55;100901.94;5079399;28;20429;-63
2021/08/05 06:36:33;;;;;;;64.65;52.30;;;;;;;16.81;93.90;100898.31;5075090;28;20025;-65
2021/08/05 06:38:59;;;;;;;63.42;50.55;;;;;;;16.83;94.18;100893.81;5077799;28;20032;-65
2021/08/05 06:41:25;;;;;;;63.92;52.47;;;;;;;16.92;94.13;100895.44;5080504;28;20025;-65
2021/08/05 06:43:50;;;;;;;63.97;52.80;;;;;;;17.01;93.39;100898.81;5075338;28;20027;-64
2021/08/05 06:46:15;;;;;;;67.03;53.88;;;;;;;17.14;91.61;100895.84;5078580;28;20020;-64
2021/08/05 06:48:41;;;;;;;69.35;54.28;;;;;;;17.23;91.39;100895.66;5079441;28;20029;-66
2021/08/05 06:51:08;;;;;;;69.88;54.35;;;;;;;17.39;90.83;100901.53;5075890;28;20491;-64
2021/08/05 06:53:33;;;;;;;64.90;53.40;;;;;;;17.50;88.65;100895.94;5079444;28;20085;-66
2021/08/05 06:55:59;;;;;;;64.88;53.90;;;;;;;17.59;87.21;100893.94;5067906;28;20040;-66
2021/08/05 06:58:24;;;;;;;64.53;53.00;;;;;;;17.73;84.95;100895.38;5078831;28;20036;-65
2021/08/05 07:00:50;;;;;;;65.82;53.70;;;;;;;17.77;84.55;100892.59;5078542;28;20024;-65
2021/08/05 07:03:15;;;;;;;66.47;52.83;;;;;;;17.90;84.19;100892.34;5078683;28;20043;-65
2021/08/05 07:05:41;;;;;;;67.15;52.58;;;;;;;17.93;84.08;100886.91;5078846;28;20485;-65
2021/08/05 07:08:07;;;;;;;65.10;51.85;;;;;;;17.96;83.90;100889.50;5074115;28;20040;-65
2021/08/05 07:10:32;;;;;;;63.70;52.35;;;;;;;18.02;83.51;100892.00;5079947;28;20058;-65
2021/08/05 07:12:57;;;;;;;64.63;53.30;;;;;;;18.05;84.67;100883.91;5078479;28;20129;-65
2021/08/05 07:15:23;;;;;;;65.85;54.50;;;;;;;18.03;84.71;100883.06;5080995;28;20090;-63
2021/08/05 07:17:49;;;;;;;70.03;55.47;;;;;;;18.02;84.66;100881.31;5075493;28;20024;-63
2021/08/05 07:20:15;;;;;;;69.88;56.05;;;;;;;18.00;85.29;100877.81;5074403;28;20425;-63
2021/08/05 07:22:42;;;;;;;65.40;53.47;;;;;;;18.03;86.55;100880.41;5073058;28;20032;-64
2021/08/05 07:25:10;;;;;;;67.93;55.30;;;;;;;18.15;84.93;100881.00;5072929;28;20028;-64
2021/08/05 07:27:37;;;;;;;65.10;53.30;;;;;;;18.20;84.65;100876.38;5073177;28;20036;-63
2021/08/05 07:30:04;;;;;;;68.43;54.80;;;;;;;18.29;84.77;100878.84;5073077;28;20028;-63
2021/08/05 07:32:29;;;;;;;65.78;53.58;;;;;;;18.33;82.89;100877.81;5071665;28;20064;-63
2021/08/05 07:34:55;;;;;;;64.43;53.10;;;;;;;18.47;82.94;100880.97;5073243;28;20052;-63
2021/08/05 07:37:20;;;;;;;65.40;53.55;;;;;;;18.59;81.35;100873.53;5073302;28;20467;-64
2021/08/05 07:39:45;;;;;;;64.00;53.10;;;;;;;18.63;80.84;100872.53;5073208;28;20410;-64
2021/08/05 07:42:12;;;;;;;62.53;51.97;;;;;;;18.68;79.35;100872.38;5073224;28;20025;-63
2021/08/05 07:44:37;;;;;;;61.13;50.92;;;;;;;18.81;78.73;100877.34;5072937;28;20076;-64
2021/08/05 07:47:03;;;;;;;59.90;50.90;;;;;;;19.06;77.24;100873.09;5073054;28;20024;-65
2021/08/05 07:49:28;;;;;;;62.85;48.88;;;;;;;19.19;76.97;100873.59;5068074;28;20482;-64
2021/08/05 07:51:53;;;;;;;58.35;48.70;;;;;;;19.30;74.76;100864.28;5070925;28;20036;-64
2021/08/05 07:54:19;;;;;;;58.38;47.45;;;;;;;19.47;73.79;100873.56;5072826;28;20075;-63
2021/08/05 07:56:44;;;;;;;57.60;47.40;;;;;;;19.50;73.53;100871.69;5072332;28;20025;-64
2021/08/05 07:59:10;;;;;;;62.47;49.17;;;;;;;19.67;72.06;100873.81;5072892;28;20379;-65
2021/08/05 08:01:35;;;;;;;58.13;47.10;;;;;;;19.79;71.38;100867.22;5072840;28;20021;-64
2021/08/05 08:04:00;;;;;;;58.22;47.13;;;;;;;20.07;71.07;100866.25;5072737;28;20471;-63
2021/08/05 08:06:26;;;;;;;57.88;47.90;;;;;;;20.29;69.80;100855.63;5072761;28;20033;-64
2021/08/05 08:08:51;;;;;;;57.25;46.70;;;;;;;20.61;69.16;100858.09;5072684;28;20021;-67
2021/08/05 08:11:22;;;;;;;52.58;42.67;;;;;;;20.94;67.01;100860.44;5072458;28;20066;-67
2021/08/05 08:13:48;;;;;;;49.05;38.50;;;;;;;20.89;64.11;100858.81;5072591;28;20103;-67
2021/08/05 08:16:13;;;;;;;49.40;38.22;;;;;;;20.92;64.95;100852.44;5072896;28;20058;-67
2021/08/05 08:18:38;;;;;;;47.60;38.08;;;;;;;21.05;64.20;100851.03;5072686;28;20471;-68
2021/08/05 08:21:04;;;;;;;48.25;38.15;;;;;;;21.07;64.32;100848.28;5072107;28;20057;-65
2021/08/05 08:23:29;;;;;;;47.45;37.50;;;;;;;21.00;65.13;100846.75;5076088;28;20535;-65
2021/08/05 08:25:55;;;;;;;46.17;35.97;;;;;;;20.95;63.86;100849.63;5078710;28;20031;-66
2021/08/05 08:28:20;;;;;;;46.72;36.92;;;;;;;20.88;65.22;100848.13;5077371;28;20119;-65
2021/08/05 08:30:46;;;;;;;45.80;35.72;;;;;;;20.99;66.40;100851.25;5079816;28;20073;-64
2021/08/05 08:33:11;;;;;;;42.35;33.70;;;;;;;21.34;64.74;100846.31;5079834;28;20021;-65
2021/08/05 08:35:37;;;;;;;42.28;33.00;;;;;;;21.86;62.49;100848.69;5078262;28;20028;-67
2021/08/05 08:38:03;;;;;;;41.08;32.20;;;;;;;22.42;60.21;100847.13;5078521;28;20085;-66
2021/08/05 08:40:29;;;;;;;41.60;31.85;;;;;;;22.72;56.83;100843.13;5075339;28;20097;-63
2021/08/05 08:42:54;;;;;;;41.80;30.88;;;;;;;22.85;56.25;100843.41;5076342;28;20119;-64
2021/08/05 08:45:20;;;;;;;39.28;30.13;;;;;;;22.99;57.92;100843.63;5076481;28;20351;-63
2021/08/05 08:47:50;;;;;;;39.22;29.25;;;;;;;22.83;58.22;100843.47;5078818;28;20371;-65
2021/08/05 08:50:16;;;;;;;38.47;28.73;;;;;;;22.79;57.93;100845.47;5076805;28;20028;-65
2021/08/05 08:52:44;;;;;;;38.58;28.42;;;;;;;23.08;57.21;100837.81;5078678;28;20036;-63
2021/08/05 08:55:10;;;;;;;37.70;27.35;;;;;;;23.47;55.45;100833.25;5074255;28;20615;-65
2021/08/05 08:57:36;;;;;;;35.42;26.15;;;;;;;23.79;53.33;100828.94;5065145;28;20020;-65
2021/08/05 09:00:07;;;;;;;36.22;28.02;;;;;;;23.67;54.94;100835.84;5067612;28;20040;-66
2021/08/05 09:02:32;;;;;;;36.42;27.08;;;;;;;23.84;54.19;100834.97;5074505;28;20077;-64
2021/08/05 09:04:58;;;;;;;36.45;27.83;;;;;;;23.89;54.71;100823.13;5076067;28;20017;-63
2021/08/05 09:07:24;;;;;;;35.42;27.20;;;;;;;24.05;53.52;100831.28;5076756;28;20479;-64
2021/08/05 09:09:51;;;;;;;34.65;27.23;;;;;;;23.99;51.97;100827.06;5077429;28;20028;-63
2021/08/05 09:12:16;;;;;;;33.33;25.33;;;;;;;23.86;49.69;100824.13;5077294;28;20072;-63
2021/08/05 09:14:50;;;;;;;33.13;25.63;;;;;;;23.97;51.35;100834.38;5075669;28;20102;-63
2021/08/05 09:17:28;;;;;;;36.05;27.05;;;;;;;23.61;50.97;100832.59;5075861;28;20029;-64
2021/08/05 09:19:57;;;;;;;34.35;25.80;;;;;;;23.79;51.06;100825.38;5077565;28;20039;-63
2021/08/05 09:22:33;;;;;;;34.35;26.98;;;;;;;24.19;51.48;100834.13;5078959;28;20028;-63
2021/08/05 09:24:58;;;;;;;34.63;26.70;;;;;;;24.68;49.82;100831.53;5080850;28;20074;-64
2021/08/05 09:27:34;;;;;;;34.53;25.83;;;;;;;24.91;50.46;100826.66;5082317;28;20466;-64
2021/08/05 09:30:00;;;;;;;35.60;26.50;;;;;;;25.12;47.44;100821.88;5077441;28;20382;-63
2021/08/05 09:32:29;;;;;;;32.38;24.10;;;;;;;25.39;46.72;100818.56;5080181;28;20020;-63
2021/08/05 09:35:27;;;;;;;31.85;23.15;;;;;;;26.13;48.44;100805.19;5066002;28;20465;-65
2021/08/05 09:37:52;;;;;;;33.75;23.48;;;;;;;26.98;43.12;100811.56;5028055;28;20038;-63
2021/08/05 09:40:18;;;;;;;32.33;23.40;;;;;;;27.28;41.78;100803.25;5025911;28;20439;-63
2021/08/05 09:43:04;;;;;;;31.92;23.63;;;;;;;27.53;43.40;100804.34;5027745;28;20034;-64
2021/08/05 09:45:37;;;;;;;30.33;21.88;;;;;;;28.25;39.58;100805.78;5022411;28;20037;-63
2021/08/05 09:48:03;;;;;;;31.27;22.83;;;;;;;28.55;38.82;100799.16;5021708;28;20041;-63
2021/08/05 09:50:28;;;;;;;32.15;22.70;;;;;;;29.16;37.32;100802.81;5024742;28;20361;-66
2021/08/05 09:53:08;;;;;;;32.30;23.25;;;;;;;29.81;37.55;100800.69;5027955;28;20034;-63
2021/08/05 09:55:35;;;;;;;30.85;22.60;;;;;;;29.95;35.83;100794.19;5026485;28;20033;-66
2021/08/05 09:58:01;;;;;;;30.05;21.63;;;;;;;30.37;35.55;100793.63;5027877;28;20120;-63
2021/08/05 10:00:26;;;;;;;30.38;22.13;;;;;;;30.17;34.51;100793.34;5021685;28;20191;-65
2021/08/05 10:02:53;;;;;;;30.00;21.05;;;;;;;29.19;36.76;100786.25;5027886;28;20048;-65
2021/08/05 10:05:23;;;;;;;31.10;21.27;;;;;;;28.25;38.80;100789.50;5028421;28;21001;-65
2021/08/05 10:07:53;;;;;;;33.58;22.38;;;;;;;27.68;41.22;100794.28;5028903;28;20037;-65
2021/08/05 10:10:25;;;;;;;29.48;21.58;;;;;;;28.76;38.42;100783.16;5028230;28;20033;-65
2021/08/05 10:12:51;;;;;;;;;;;;;;;30.27;38.40;100782.59;5025682;28;20037;-64
2021/08/05 10:15:17;;;;;;;30.40;21.65;;;;;;;28.82;36.16;100785.41;5073076;28;20279;-65
2021/08/05 10:17:43;;;;;;;30.15;21.23;;;;;;;27.72;38.69;100776.81;5076071;28;20046;-64
2021/08/05 10:20:11;;;;;;;30.33;21.50;;;;;;;27.87;38.89;100772.16;5072957;28;20036;-66
2021/08/05 10:22:37;;;;;;;29.88;21.40;;;;;;;28.53;37.83;100775.66;5074984;28;20017;-64
2021/08/05 10:25:05;;;;;;;28.55;19.23;;;;;;;28.58;39.05;100780.75;5075248;28;20024;-64
2021/08/05 10:27:30;;;;;;;29.85;20.33;;;;;;;30.07;34.71;100770.53;5071462;28;20025;-65
2021/08/05 10:29:57;;;;;;;29.50;20.15;;;;;;;31.28;32.45;100770.75;5072343;28;20021;-64
2021/08/05 10:32:23;;;;;;;30.67;20.92;;;;;;;32.22;30.68;100770.00;5071701;28;20032;-64
2021/08/05 10:34:51;;;;;;;29.55;20.73;;;;;;;31.04;31.34;100770.94;5068820;28;20025;-65
2021/08/05 10:37:17;;;;;;;29.35;20.08;;;;;;;31.09;32.66;100762.34;5076635;28;20080;-65
2021/08/05 10:39:44;;;;;;;28.48;20.63;;;;;;;31.80;31.16;100765.44;5072259;28;20051;-65
2021/08/05 10:42:15;;;;;;;29.77;20.67;;;;;;;31.52;31.34;100761.44;5074005;28;20037;-65
2021/08/05 10:44:41;;;;;;;29.55;21.23;;;;;;;30.77;32.79;100765.84;5068625;28;20044;-65
2021/08/05 10:47:11;;;;;;;29.73;21.70;;;;;;;28.73;36.12;100757.03;5074450;28;20056;-64
2021/08/05 10:49:36;;;;;;;31.90;22.50;;;;;;;26.96;38.92;100751.16;5071610;28;20028;-64
2021/08/05 10:52:02;;;;;;;31.25;22.20;;;;;;;25.75;42.03;100752.41;5075108;28;20463;-65
2021/08/05 10:54:46;;;;;;;30.73;23.08;;;;;;;24.95;44.88;100754.38;5070639;28;20036;-65
2021/08/05 10:57:22;;;;;;;32.00;23.38;;;;;;;24.65;45.19;100756.00;5069727;28;20025;-64
2021/08/05 10:59:59;;;;;;;32.20;22.75;;;;;;;24.42;46.32;100753.69;5072272;28;20034;-65
2021/08/05 11:02:53;;;;;;;31.98;23.33;;;;;;;24.04;47.32;100751.25;5069752;28;20081;-65
2021/08/05 11:05:21;;;;;;;32.92;24.00;;;;;;;23.46;50.33;100747.91;5069797;28;20398;-64